createdAt,value
2018-07-16T00:00:14.621Z,99.90
2018-07-16T00:02:43.245Z,99.90
2018-07-16T00:05:11.939Z,99.90
2018-07-16T00:07:40.496Z,99.90
2018-07-16T00:10:09.458Z,99.90
2018-07-16T00:12:38.061Z,99.90
2018-07-16T00:15:06.616Z,99.90
2018-07-16T00:17:35.458Z,99.90
2018-07-16T00:20:04.399Z,99.90
2018-07-16T00:22:33.027Z,99.90
2018-07-16T00:25:01.782Z,99.90
2018-07-16T00:27:30.346Z,99.90
2018-07-16T00:29:58.908Z,99.90
2018-07-16T00:32:27.474Z,99.90
2018-07-16T00:34:56.026Z,99.90
2018-07-16T00:37:24.524Z,99.90
2018-07-16T00:39:53.018Z,99.90
2018-07-16T00:42:21.542Z,99.90
2018-07-16T00:44:50.084Z,99.90
2018-07-16T00:47:18.615Z,99.90
2018-07-16T00:49:47.126Z,99.90
2018-07-16T00:52:15.642Z,99.90
2018-07-16T00:54:44.166Z,99.90
2018-07-16T00:57:12.704Z,99.90
2018-07-16T00:59:41.268Z,99.90
2018-07-16T01:04:37.944Z,99.90
2018-07-16T01:07:06.530Z,99.90
2018-07-16T01:09:35.061Z,99.90
2018-07-16T01:12:03.580Z,99.90
2018-07-16T01:14:32.111Z,99.90
2018-07-16T01:17:00.689Z,99.90
2018-07-16T01:19:29.226Z,99.90
2018-07-16T01:21:57.816Z,99.90
2018-07-16T01:24:26.284Z,99.90
2018-07-16T01:26:54.800Z,99.90
2018-07-16T01:29:23.344Z,99.90
2018-07-16T01:31:51.890Z,99.90
2018-07-16T01:34:20.397Z,99.90
2018-07-16T01:36:48.903Z,99.90
2018-07-16T01:39:17.422Z,99.90
2018-07-16T01:41:45.940Z,99.90
2018-07-16T01:46:42.639Z,99.90
2018-07-16T01:49:11.153Z,99.90
2018-07-16T01:51:39.715Z,99.90
2018-07-16T01:54:08.307Z,99.90
2018-07-16T01:56:36.837Z,99.90
2018-07-16T01:59:05.365Z,99.90
2018-07-16T02:01:33.913Z,99.90
2018-07-16T02:04:02.440Z,99.90
2018-07-16T02:06:30.975Z,99.90
2018-07-16T02:08:59.516Z,99.90
2018-07-16T02:11:28.023Z,99.90
2018-07-16T02:13:56.535Z,99.90
2018-07-16T02:16:25.059Z,99.90
2018-07-16T02:18:53.579Z,99.90
2018-07-16T02:21:22.105Z,99.90
2018-07-16T02:23:50.647Z,99.90
2018-07-16T02:26:19.186Z,99.90
2018-07-16T02:28:47.718Z,99.90
2018-07-16T02:31:16.228Z,99.90
2018-07-16T02:33:44.818Z,99.90
2018-07-16T02:36:13.346Z,99.90
2018-07-16T02:41:10.067Z,99.90
2018-07-16T02:43:38.566Z,99.90
2018-07-16T02:46:07.123Z,99.90
2018-07-16T02:48:35.630Z,99.90
2018-07-16T02:51:04.189Z,99.90
2018-07-16T02:53:32.742Z,99.90
2018-07-16T02:56:01.314Z,99.90
2018-07-16T02:58:29.863Z,99.90
2018-07-16T03:00:58.407Z,99.90
2018-07-16T03:03:26.923Z,99.90
2018-07-16T03:05:55.461Z,99.90
2018-07-16T03:08:24.027Z,99.90
2018-07-16T03:10:52.587Z,99.90
2018-07-16T03:13:21.115Z,99.90
2018-07-16T03:15:49.635Z,99.90
2018-07-16T03:18:18.170Z,99.90
2018-07-16T03:20:46.728Z,99.90
2018-07-16T03:23:15.279Z,99.90
2018-07-16T03:28:11.980Z,99.90
2018-07-16T03:30:40.512Z,99.90
2018-07-16T03:33:09.055Z,99.90
2018-07-16T03:35:37.608Z,99.90
2018-07-16T03:40:34.313Z,99.90
2018-07-16T03:43:02.865Z,99.90
2018-07-16T03:45:31.427Z,99.90
2018-07-16T03:47:59.998Z,99.90
2018-07-16T03:50:28.528Z,99.90
2018-07-16T03:52:57.059Z,99.90
2018-07-16T03:55:26.472Z,99.90
2018-07-16T03:57:54.986Z,99.90
2018-07-16T04:02:51.671Z,99.90
2018-07-16T04:12:44.752Z,99.90
2018-07-16T04:15:13.304Z,99.90
2018-07-16T04:17:41.825Z,99.90
2018-07-16T04:20:10.822Z,99.90
2018-07-16T04:22:39.360Z,99.90
2018-07-16T04:25:07.919Z,99.90
2018-07-16T04:27:36.477Z,99.90
2018-07-16T04:30:05.054Z,99.90
2018-07-16T04:32:33.572Z,99.90
2018-07-16T04:35:02.099Z,99.90
2018-07-16T04:37:30.596Z,99.90
2018-07-16T04:39:59.192Z,99.90
2018-07-16T04:42:27.688Z,99.90
2018-07-16T04:44:56.208Z,99.90
2018-07-16T04:47:24.772Z,99.90
2018-07-16T04:49:53.340Z,99.90
2018-07-16T04:52:21.915Z,99.90
2018-07-16T04:54:50.476Z,99.90
2018-07-16T04:59:47.202Z,99.90
2018-07-16T05:02:15.742Z,99.90
2018-07-16T05:04:44.248Z,99.90
2018-07-16T05:07:12.796Z,99.90
2018-07-16T05:09:41.380Z,99.90
2018-07-16T05:14:38.125Z,99.90
2018-07-16T05:17:06.647Z,99.90
2018-07-16T05:19:35.181Z,99.90
2018-07-16T05:22:03.779Z,99.90
2018-07-16T05:24:32.324Z,99.90
2018-07-16T05:27:00.885Z,99.90
2018-07-16T05:31:57.858Z,99.90
2018-07-16T05:34:26.478Z,99.90
2018-07-16T05:36:55.020Z,99.90
2018-07-16T05:39:23.564Z,99.90
2018-07-16T05:41:52.171Z,99.90
2018-07-16T05:44:20.703Z,99.90
2018-07-16T05:49:17.485Z,99.90
2018-07-16T05:51:46.210Z,99.90
2018-07-16T05:54:14.792Z,99.90
2018-07-16T05:56:43.338Z,99.90
2018-07-16T05:59:11.865Z,99.90
2018-07-16T06:01:40.460Z,99.90
2018-07-16T06:04:08.980Z,99.90
2018-07-16T06:09:06.574Z,99.90
2018-07-16T06:11:35.145Z,99.90
2018-07-16T06:14:03.770Z,99.90
2018-07-16T06:16:32.340Z,99.90
2018-07-16T06:21:29.083Z,99.70
2018-07-16T06:23:57.622Z,99.40
2018-07-16T06:26:26.147Z,99.20
2018-07-16T06:28:54.683Z,97.30
2018-07-16T06:31:23.272Z,97.90
2018-07-16T06:33:51.827Z,97.60
2018-07-16T06:36:20.463Z,97.10
2018-07-16T06:38:48.974Z,97.00
2018-07-16T06:41:17.736Z,95.60
2018-07-16T06:43:46.076Z,97.00
2018-07-16T06:46:14.620Z,96.20
2018-07-16T06:48:43.132Z,95.50
2018-07-16T06:51:11.649Z,95.50
2018-07-16T06:53:40.196Z,95.20
2018-07-16T06:56:08.766Z,93.90
2018-07-16T06:58:37.344Z,92.30
2018-07-16T07:01:05.877Z,91.70
2018-07-16T07:03:34.402Z,91.90
2018-07-16T07:06:02.940Z,93.90
2018-07-16T07:08:31.477Z,93.40
2018-07-16T07:11:00.092Z,92.40
2018-07-16T07:13:28.624Z,91.70
2018-07-16T07:15:57.195Z,90.70
2018-07-16T07:18:25.737Z,90.60
2018-07-16T07:20:54.304Z,90.00
2018-07-16T07:25:51.058Z,84.80
2018-07-16T07:28:19.648Z,89.60
2018-07-16T07:30:48.232Z,85.50
2018-07-16T07:35:45.126Z,86.10
2018-07-16T07:38:13.568Z,84.00
2018-07-16T07:40:42.131Z,78.80
2018-07-16T07:43:10.753Z,75.70
2018-07-16T07:45:39.311Z,78.80
2018-07-16T07:48:07.881Z,77.50
2018-07-16T07:50:36.763Z,75.40
2018-07-16T07:53:05.287Z,74.90
2018-07-16T07:55:33.835Z,74.00
2018-07-16T07:58:02.409Z,72.90
2018-07-16T08:00:30.984Z,73.40
2018-07-16T08:05:27.742Z,74.40
2018-07-16T08:07:56.299Z,73.10
2018-07-16T08:10:24.902Z,72.10
2018-07-16T08:12:53.581Z,72.80
2018-07-16T08:15:22.171Z,75.80
2018-07-16T08:17:50.725Z,73.90
2018-07-16T08:20:19.313Z,71.90
2018-07-16T08:22:47.867Z,73.70
2018-07-16T08:25:16.458Z,66.80
2018-07-16T08:27:45.064Z,69.60
2018-07-16T08:30:13.669Z,70.40
2018-07-16T08:32:42.284Z,74.90
2018-07-16T08:35:10.837Z,70.30
2018-07-16T08:37:39.452Z,67.30
2018-07-16T08:40:08.427Z,72.50
2018-07-16T08:42:37.019Z,71.40
2018-07-16T08:45:05.658Z,68.70
2018-07-16T08:47:34.222Z,66.80
2018-07-16T08:50:02.758Z,67.90
2018-07-16T08:52:31.382Z,68.70
2018-07-16T08:54:59.912Z,64.40
2018-07-16T08:57:28.475Z,62.90
2018-07-16T08:59:57.034Z,60.70
2018-07-16T09:02:25.652Z,60.90
2018-07-16T09:04:54.199Z,59.20
2018-07-16T09:07:22.759Z,57.70
2018-07-16T09:12:19.528Z,57.10
2018-07-16T09:14:48.099Z,57.60
2018-07-16T09:17:16.661Z,57.80
2018-07-16T09:19:45.232Z,57.60
2018-07-16T09:22:13.800Z,60.10
2018-07-16T09:24:42.419Z,59.80
2018-07-16T09:27:10.963Z,58.00
2018-07-16T09:29:39.590Z,56.90
2018-07-16T09:32:08.267Z,58.50
2018-07-16T09:34:36.812Z,58.90
2018-07-16T09:37:05.453Z,57.90
2018-07-16T09:39:34.150Z,58.00
2018-07-16T09:42:02.737Z,60.30
2018-07-16T09:44:31.366Z,57.70
2018-07-16T09:46:59.871Z,59.10
2018-07-16T09:49:28.400Z,59.10
2018-07-16T09:51:56.973Z,56.80
2018-07-16T09:54:25.525Z,57.70
2018-07-16T09:56:54.097Z,57.10
2018-07-16T09:59:22.654Z,58.80
2018-07-16T10:01:56.403Z,56.80
2018-07-16T10:06:53.127Z,55.20
2018-07-16T10:09:21.705Z,55.80
2018-07-16T10:11:50.263Z,55.80
2018-07-16T10:14:18.797Z,58.00
2018-07-16T10:16:47.375Z,57.60
2018-07-16T10:19:15.935Z,55.00
2018-07-16T10:21:44.477Z,54.30
2018-07-16T10:24:13.014Z,54.90
2018-07-16T10:26:41.548Z,53.20
2018-07-16T10:29:10.078Z,53.70
2018-07-16T10:31:38.641Z,56.00
2018-07-16T10:36:35.408Z,51.60
2018-07-16T10:39:04.855Z,52.90
2018-07-16T10:41:33.410Z,52.70
2018-07-16T10:44:01.999Z,54.00
2018-07-16T10:46:30.614Z,57.70
2018-07-16T10:48:59.394Z,53.00
2018-07-16T10:51:28.006Z,52.10
2018-07-16T10:53:56.661Z,48.90
2018-07-16T10:56:25.284Z,49.20
2018-07-16T10:58:53.833Z,49.20
2018-07-16T11:01:22.412Z,49.10
2018-07-16T11:03:50.989Z,51.20
2018-07-16T11:08:54.042Z,48.70
2018-07-16T11:11:22.729Z,50.60
2018-07-16T11:13:51.263Z,51.60
2018-07-16T11:16:19.774Z,50.70
2018-07-16T11:21:20.051Z,48.80
2018-07-16T11:23:48.593Z,51.70
2018-07-16T11:26:17.147Z,51.70
2018-07-16T11:28:45.728Z,50.00
2018-07-16T11:31:14.255Z,47.30
2018-07-16T11:33:42.821Z,48.40
2018-07-16T11:36:11.363Z,47.70
2018-07-16T11:38:39.923Z,47.90
2018-07-16T11:41:08.463Z,47.20
2018-07-16T11:43:37.043Z,47.80
2018-07-16T11:46:05.690Z,48.30
2018-07-16T11:48:34.193Z,47.60
2018-07-16T11:51:02.731Z,48.70
2018-07-16T11:53:31.283Z,47.90
2018-07-16T11:55:59.816Z,47.60
2018-07-16T11:58:28.374Z,47.90
2018-07-16T12:00:57.016Z,46.30
2018-07-16T12:03:25.558Z,47.50
2018-07-16T12:05:54.108Z,46.00
2018-07-16T12:08:22.651Z,47.10
2018-07-16T12:10:51.210Z,48.40
2018-07-16T12:13:19.804Z,47.40
2018-07-16T12:15:48.384Z,48.30
2018-07-16T12:18:16.902Z,42.30
2018-07-16T12:20:45.536Z,41.90
2018-07-16T12:23:14.079Z,42.30
2018-07-16T12:25:42.602Z,40.00
2018-07-16T12:28:11.111Z,37.30
2018-07-16T12:30:39.712Z,39.70
2018-07-16T12:33:08.294Z,37.80
2018-07-16T12:35:36.818Z,37.30
2018-07-16T12:40:33.600Z,36.70
2018-07-16T12:43:02.120Z,37.50
2018-07-16T12:45:30.671Z,38.00
2018-07-16T12:50:27.479Z,37.50
2018-07-16T12:52:56.039Z,37.50
2018-07-16T12:55:24.730Z,40.80
2018-07-16T12:57:53.229Z,37.50
2018-07-16T13:00:21.764Z,38.90
2018-07-16T13:02:50.278Z,38.50
2018-07-16T13:05:18.834Z,38.60
2018-07-16T13:07:47.415Z,39.00
2018-07-16T13:10:15.982Z,38.70
2018-07-16T13:12:44.541Z,38.70
2018-07-16T13:15:13.104Z,38.20
2018-07-16T13:20:09.824Z,37.20
2018-07-16T13:22:38.385Z,36.80
2018-07-16T13:25:06.975Z,40.80
2018-07-16T13:27:35.633Z,39.20
2018-07-16T13:30:04.821Z,39.50
2018-07-16T13:32:33.453Z,39.10
2018-07-16T13:35:01.991Z,38.70
2018-07-16T13:37:30.635Z,40.00
2018-07-16T13:39:59.177Z,38.50
2018-07-16T13:42:27.765Z,38.10
2018-07-16T13:44:56.327Z,38.00
2018-07-16T13:47:24.833Z,37.40
2018-07-16T13:49:53.385Z,35.30
2018-07-16T13:52:21.948Z,35.70
2018-07-16T13:54:50.521Z,36.80
2018-07-16T13:57:19.060Z,36.00
2018-07-16T13:59:47.624Z,37.20
2018-07-16T14:02:16.260Z,38.50
2018-07-16T14:04:44.742Z,37.10
2018-07-16T14:07:13.284Z,37.80
2018-07-16T14:09:41.813Z,37.80
2018-07-16T14:12:10.425Z,37.70
2018-07-16T14:14:38.973Z,37.10
2018-07-16T14:17:08.868Z,36.90
2018-07-16T14:19:37.404Z,38.30
2018-07-16T14:22:05.942Z,38.40
2018-07-16T14:24:34.518Z,39.20
2018-07-16T14:27:03.117Z,38.60
2018-07-16T14:29:31.739Z,39.10
2018-07-16T14:32:00.339Z,40.70
2018-07-16T14:34:28.895Z,40.40
2018-07-16T14:36:57.431Z,40.50
2018-07-16T14:39:26.124Z,41.50
2018-07-16T14:41:54.585Z,40.80
2018-07-16T14:44:23.152Z,40.60
2018-07-16T14:46:51.705Z,41.00
2018-07-16T14:49:20.219Z,41.60
2018-07-16T14:51:48.780Z,42.00
2018-07-16T14:54:17.341Z,43.40
2018-07-16T14:59:14.108Z,42.70
2018-07-16T15:04:10.868Z,44.00
2018-07-16T15:06:39.415Z,43.40
2018-07-16T15:09:09.397Z,45.20
2018-07-16T15:11:38.060Z,44.90
2018-07-16T15:14:07.184Z,44.50
2018-07-16T15:19:04.077Z,42.20
2018-07-16T15:21:32.867Z,43.30
2018-07-16T15:24:01.280Z,43.70
2018-07-16T15:26:29.840Z,44.80
2018-07-16T15:28:58.415Z,43.70
2018-07-16T15:31:26.970Z,44.50
2018-07-16T15:33:55.500Z,44.50
2018-07-16T15:36:24.050Z,44.50
2018-07-16T15:38:52.969Z,45.00
2018-07-16T15:41:21.558Z,40.90
2018-07-16T15:43:50.082Z,41.80
2018-07-16T15:46:18.625Z,40.80
2018-07-16T15:48:47.150Z,40.10
2018-07-16T15:51:15.703Z,40.30
2018-07-16T15:53:44.272Z,40.70
2018-07-16T15:56:12.802Z,41.00
2018-07-16T15:58:41.340Z,41.30
2018-07-16T16:03:38.098Z,43.30
2018-07-16T16:06:06.682Z,43.70
2018-07-16T16:08:35.308Z,45.20
2018-07-16T16:11:03.891Z,41.70
2018-07-16T16:13:32.669Z,37.70
2018-07-16T16:18:29.495Z,37.50
2018-07-16T16:20:58.092Z,39.10
2018-07-16T16:23:26.672Z,39.40
2018-07-16T16:25:55.248Z,39.20
2018-07-16T16:28:23.815Z,41.60
2018-07-16T16:30:52.395Z,40.90
2018-07-16T16:33:20.915Z,41.60
2018-07-16T16:35:49.578Z,41.80
2018-07-16T16:38:18.153Z,42.60
2018-07-16T16:40:46.754Z,42.30
2018-07-16T16:43:15.326Z,42.40
2018-07-16T16:45:43.988Z,41.70
2018-07-16T16:48:12.537Z,41.70
2018-07-16T16:50:41.080Z,41.70
2018-07-16T16:53:09.674Z,42.10
2018-07-16T16:55:38.211Z,44.00
2018-07-16T16:58:06.806Z,47.40
2018-07-16T17:00:35.387Z,47.50
2018-07-16T17:03:04.046Z,48.20
2018-07-16T17:05:32.652Z,49.00
2018-07-16T17:08:01.229Z,49.50
2018-07-16T17:10:29.814Z,49.60
2018-07-16T17:12:58.392Z,49.50
2018-07-16T17:15:26.937Z,48.30
2018-07-16T17:17:55.485Z,49.50
2018-07-16T17:20:24.046Z,51.20
2018-07-16T17:22:52.604Z,50.80
2018-07-16T17:25:21.154Z,49.60
2018-07-16T17:27:49.740Z,50.30
2018-07-16T17:30:18.351Z,50.40
2018-07-16T17:32:46.924Z,50.60
2018-07-16T17:35:15.467Z,50.00
2018-07-16T17:37:44.032Z,48.90
2018-07-16T17:40:12.633Z,48.80
2018-07-16T17:45:09.432Z,47.00
2018-07-16T17:47:37.986Z,47.40
2018-07-16T17:50:06.584Z,46.70
2018-07-16T17:52:35.128Z,47.70
2018-07-16T17:55:03.715Z,49.90
2018-07-16T17:57:32.289Z,50.40
2018-07-16T18:00:00.925Z,50.50
2018-07-16T18:04:57.701Z,50.60
2018-07-16T18:09:54.459Z,50.50
2018-07-16T18:14:51.954Z,50.40
2018-07-16T18:17:20.493Z,55.30
2018-07-16T18:19:49.049Z,53.80
2018-07-16T18:22:17.619Z,53.40
2018-07-16T18:24:46.197Z,53.10
2018-07-16T18:27:14.821Z,52.50
2018-07-16T18:29:43.417Z,52.40
2018-07-16T18:32:11.960Z,53.30
2018-07-16T18:37:08.791Z,57.30
2018-07-16T18:39:37.323Z,56.60
2018-07-16T18:42:05.915Z,56.00
2018-07-16T18:44:34.456Z,56.80
2018-07-16T18:47:03.054Z,58.20
2018-07-16T18:49:31.634Z,58.30
2018-07-16T18:52:00.265Z,57.90
2018-07-16T18:54:28.876Z,57.90
2018-07-16T18:56:57.421Z,58.40
2018-07-16T18:59:25.972Z,58.40
2018-07-16T19:01:54.528Z,58.60
2018-07-16T19:04:23.133Z,59.40
2018-07-16T19:06:51.713Z,60.70
2018-07-16T19:09:20.311Z,60.70
2018-07-16T19:11:48.826Z,60.10
2018-07-16T19:14:17.372Z,60.90
2018-07-16T19:16:45.888Z,59.70
2018-07-16T19:19:14.454Z,59.80
2018-07-16T19:21:43.002Z,59.50
2018-07-16T19:24:11.560Z,60.30
2018-07-16T19:26:40.077Z,62.70
2018-07-16T19:31:36.858Z,62.50
2018-07-16T19:34:05.396Z,62.70
2018-07-16T19:36:33.961Z,63.70
2018-07-16T19:39:02.717Z,64.60
2018-07-16T19:41:31.161Z,62.40
2018-07-16T19:43:59.725Z,63.40
2018-07-16T19:46:28.253Z,60.50
2018-07-16T19:51:25.012Z,58.30
2018-07-16T19:53:53.542Z,59.10
2018-07-16T19:56:22.127Z,61.20
2018-07-16T19:58:50.645Z,60.80
2018-07-16T20:01:19.167Z,63.70
2018-07-16T20:03:47.695Z,64.10
2018-07-16T20:06:16.650Z,62.80
2018-07-16T20:08:45.228Z,61.80
2018-07-16T20:11:13.772Z,61.80
2018-07-16T20:13:42.296Z,63.20
2018-07-16T20:16:10.804Z,63.60
2018-07-16T20:21:07.552Z,65.00
2018-07-16T20:23:36.068Z,64.60
2018-07-16T20:26:04.724Z,64.40
2018-07-16T20:28:33.271Z,64.60
2018-07-16T20:31:01.812Z,66.80
2018-07-16T20:33:30.356Z,66.80
2018-07-16T20:35:58.984Z,67.70
2018-07-16T20:38:27.503Z,66.50
2018-07-16T20:40:56.053Z,66.90
2018-07-16T20:43:24.584Z,65.00
2018-07-16T20:45:53.075Z,65.40
2018-07-16T20:48:21.606Z,63.70
2018-07-16T20:50:50.176Z,66.50
2018-07-16T20:53:18.739Z,67.20
2018-07-16T20:55:47.270Z,66.90
2018-07-16T20:58:15.846Z,68.80
2018-07-16T21:00:44.426Z,68.30
2018-07-16T21:03:12.944Z,70.30
2018-07-16T21:05:41.681Z,70.50
2018-07-16T21:08:10.203Z,69.90
2018-07-16T21:10:38.746Z,69.60
2018-07-16T21:13:07.326Z,70.00
2018-07-16T21:15:35.875Z,71.10
2018-07-16T21:18:04.398Z,71.70
2018-07-16T21:20:32.917Z,69.20
2018-07-16T21:23:01.469Z,69.70
2018-07-16T21:25:30.019Z,71.30
2018-07-16T21:27:58.553Z,71.40
2018-07-16T21:30:27.079Z,72.90
2018-07-16T21:32:55.647Z,75.70
2018-07-16T21:35:24.212Z,80.10
2018-07-16T21:37:52.737Z,82.00
2018-07-16T21:40:21.460Z,87.30
2018-07-16T21:42:49.937Z,85.90
2018-07-16T21:45:18.502Z,89.30
2018-07-16T21:47:47.044Z,89.50
2018-07-16T21:50:15.605Z,89.70
2018-07-16T21:52:44.145Z,90.30
2018-07-16T21:55:12.704Z,90.90
2018-07-16T21:57:41.251Z,90.70
2018-07-16T22:00:17.863Z,91.20
2018-07-16T22:02:46.424Z,90.50
2018-07-16T22:05:14.971Z,89.80
2018-07-16T22:07:43.479Z,89.20
2018-07-16T22:10:11.988Z,90.50
2018-07-16T22:12:40.542Z,90.60
2018-07-16T22:15:13.350Z,88.40
2018-07-16T22:17:41.915Z,88.20
2018-07-16T22:20:10.493Z,89.30
2018-07-16T22:22:39.000Z,86.50
2018-07-16T22:25:07.597Z,88.30
2018-07-16T22:27:36.109Z,86.80
2018-07-16T22:30:04.742Z,87.40
2018-07-16T22:32:33.286Z,85.20
2018-07-16T22:37:30.035Z,87.30
2018-07-16T22:42:26.776Z,85.90
2018-07-16T22:44:55.368Z,85.70
2018-07-16T22:47:23.895Z,84.70
2018-07-16T22:49:52.420Z,85.10
2018-07-16T22:52:21.150Z,85.70
2018-07-16T22:54:49.665Z,86.20
2018-07-16T22:57:18.193Z,85.50
2018-07-16T22:59:46.756Z,85.60
2018-07-16T23:02:15.247Z,85.90
2018-07-16T23:04:43.781Z,85.70
2018-07-16T23:07:12.340Z,83.40
2018-07-16T23:09:40.849Z,80.10
2018-07-16T23:12:09.722Z,82.90
2018-07-16T23:14:38.272Z,85.20
2018-07-16T23:17:06.818Z,86.50
2018-07-16T23:19:35.343Z,86.70
2018-07-16T23:22:03.866Z,86.80
2018-07-16T23:24:32.379Z,85.70
2018-07-16T23:34:25.479Z,88.20
2018-07-16T23:36:53.991Z,87.80
2018-07-16T23:39:22.553Z,87.50
2018-07-16T23:41:51.057Z,88.70
2018-07-16T23:44:19.567Z,85.50
2018-07-16T23:49:16.301Z,85.60
2018-07-16T23:51:44.855Z,84.00
2018-07-16T23:54:13.395Z,82.50
2018-07-16T23:56:41.920Z,83.20
2018-07-16T23:59:10.473Z,82.20
